Terminal Aerodrome Forecast
Issued by NWS

Home | Current Version | Previous Version | Graphics & Text | Print | Product List | Glossary On
Versions: 1 2 3 4 5 6 7 8 9 10 11 12 13 14 15 16 17 18 19 20 21
000
FTUS43 KICT 181733
TAFRSL
TAF
KRSL 181733Z 1818/1918 VRB03KT 6SM BR OVC012
      TEMPO 1818/1821 4SM BR OVC005
     FM190300 15005KT 4SM BR OVC006
     FM190800 17005KT 1SM BR OVC003
     FM191500 18006KT 4SM BR OVC007=

USA.gov is the U.S. government's official web portal to all federal, state and local government web resources and services.